Terminal Aerodrome Forecast
Issued by NWS

Home | Current Version | Previous Version | Graphics & Text | Print | Product List | Glossary On
Versions: 1 2 3 4 5 6 7 8 9 10 11 12 13 14 15 16 17 18 19
000
FTUS43 KPAH 201402 AAA
TAFOWB
TAF AMD
KOWB 201402Z 2014/2112 11006KT 4SM BR BKN250
     FM201500 15008KT P6SM BKN250
     FM211100 16004KT P6SM -SHRA BKN040=

USA.gov is the U.S. government's official web portal to all federal, state and local government web resources and services.